createdAt,value
2019-04-16T00:00:00.193Z,76.43
2019-04-16T00:01:13.921Z,76.09
2019-04-16T00:02:36.755Z,75.87
2019-04-16T00:03:42.014Z,75.88
2019-04-16T00:04:59.543Z,75.93
2019-04-16T00:06:16.802Z,75.93
2019-04-16T00:07:38.576Z,76.05
2019-04-16T00:08:43.865Z,76.17
2019-04-16T00:10:07.495Z,76.01
2019-04-16T00:11:12.772Z,75.98
2019-04-16T00:12:24.233Z,75.81
2019-04-16T00:13:29.888Z,76.05
2019-04-16T00:14:37.807Z,75.99
2019-04-16T00:15:42.106Z,76.51
2019-04-16T00:16:45.829Z,76.55
2019-04-16T00:17:49.467Z,75.80
2019-04-16T00:18:57.988Z,75.80
2019-04-16T00:19:58.517Z,76.56
2019-04-16T00:21:10.045Z,76.56
2019-04-16T00:22:13.588Z,76.27
2019-04-16T00:23:28.385Z,76.55
2019-04-16T00:24:33.639Z,76.60
2019-04-16T00:25:37.561Z,76.50
2019-04-16T00:26:41.208Z,76.54
2019-04-16T00:27:44.835Z,76.53
2019-04-16T00:28:48.460Z,76.73
2019-04-16T00:29:52.139Z,76.32
2019-04-16T00:30:55.845Z,76.40
2019-04-16T00:32:00.602Z,77.62
2019-04-16T00:33:04.248Z,76.88
2019-04-16T00:34:07.838Z,77.06
2019-04-16T00:35:15.411Z,76.90
2019-04-16T00:36:18.142Z,76.89
2019-04-16T00:37:22.352Z,77.14
2019-04-16T00:38:26.004Z,77.20
2019-04-16T00:39:29.658Z,77.23
2019-04-16T00:40:33.294Z,76.94
2019-04-16T00:41:36.926Z,76.74
2019-04-16T00:42:40.561Z,76.44
2019-04-16T00:43:44.329Z,76.14
2019-04-16T00:44:48.013Z,75.94
2019-04-16T00:45:51.672Z,75.91
2019-04-16T00:46:55.312Z,76.10
2019-04-16T00:47:58.935Z,75.97
2019-04-16T00:49:02.563Z,75.90
2019-04-16T00:50:07.415Z,76.00
2019-04-16T00:51:11.047Z,75.97
2019-04-16T00:52:14.699Z,75.94
2019-04-16T00:53:18.280Z,75.96
2019-04-16T00:54:21.931Z,75.88
2019-04-16T00:55:25.572Z,75.31
2019-04-16T00:56:29.601Z,75.91
2019-04-16T00:57:33.239Z,76.02
2019-04-16T00:58:37.303Z,76.46
2019-04-16T00:59:40.961Z,76.95
2019-04-16T01:00:44.843Z,77.49
2019-04-16T01:01:48.839Z,77.68
2019-04-16T01:02:52.873Z,77.22
2019-04-16T01:03:56.519Z,76.86
2019-04-16T01:05:00.149Z,76.58
2019-04-16T01:06:07.012Z,76.50
2019-04-16T01:07:09.291Z,76.40
2019-04-16T01:08:12.937Z,76.29
2019-04-16T01:09:16.636Z,76.23
2019-04-16T01:10:20.264Z,76.21
2019-04-16T01:11:23.905Z,76.26
2019-04-16T01:12:27.568Z,76.35
2019-04-16T01:13:31.282Z,76.47
2019-04-16T01:14:35.361Z,76.69
2019-04-16T01:15:38.995Z,76.60
2019-04-16T01:16:42.545Z,75.99
2019-04-16T01:17:46.175Z,76.45
2019-04-16T01:18:49.754Z,76.42
2019-04-16T01:19:53.850Z,76.69
2019-04-16T01:20:57.498Z,77.24
2019-04-16T01:22:01.035Z,77.08
2019-04-16T01:23:04.685Z,77.01
2019-04-16T01:24:08.259Z,76.85
2019-04-16T01:25:11.911Z,76.78
2019-04-16T01:26:15.558Z,76.73
2019-04-16T01:27:20.757Z,76.91
2019-04-16T01:28:42.274Z,77.00
2019-04-16T01:29:45.894Z,77.10
2019-04-16T01:30:51.485Z,76.78
2019-04-16T01:31:56.756Z,76.42
2019-04-16T01:33:19.988Z,76.53
2019-04-16T01:34:40.209Z,76.75
2019-04-16T01:35:51.611Z,76.26
2019-04-16T01:37:13.759Z,76.01
2019-04-16T01:38:21.545Z,76.68
2019-04-16T01:39:35.795Z,77.38
2019-04-16T01:40:43.868Z,77.92
2019-04-16T01:41:50.331Z,78.14
2019-04-16T01:42:54.719Z,78.13
2019-04-16T01:43:58.690Z,77.98
2019-04-16T01:45:02.270Z,77.81
2019-04-16T01:46:05.934Z,77.62
2019-04-16T01:47:09.567Z,77.48
2019-04-16T01:48:13.212Z,77.36
2019-04-16T01:49:16.854Z,77.22
2019-04-16T01:50:20.496Z,77.27
2019-04-16T01:51:24.168Z,76.99
2019-04-16T01:52:27.816Z,76.71
2019-04-16T01:53:31.467Z,76.77
2019-04-16T01:54:35.126Z,76.99
2019-04-16T01:55:38.767Z,76.20
2019-04-16T01:56:42.389Z,76.93
2019-04-16T01:57:46.026Z,77.23
2019-04-16T01:58:49.652Z,77.74
2019-04-16T01:59:53.285Z,78.11
2019-04-16T02:00:56.936Z,78.91
2019-04-16T02:02:00.576Z,78.73
2019-04-16T02:03:04.233Z,78.48
2019-04-16T02:04:07.849Z,78.27
2019-04-16T02:05:11.714Z,78.07
2019-04-16T02:06:15.328Z,77.94
2019-04-16T02:07:18.989Z,77.85
2019-04-16T02:08:22.567Z,77.78
2019-04-16T02:09:26.291Z,77.67
2019-04-16T02:10:29.931Z,77.51
2019-04-16T02:11:33.789Z,77.38
2019-04-16T02:12:37.573Z,77.33
2019-04-16T02:13:45.775Z,76.94
2019-04-16T02:14:47.315Z,77.53
2019-04-16T02:15:53.331Z,78.13
2019-04-16T02:16:57.338Z,79.06
2019-04-16T02:18:00.964Z,79.32
2019-04-16T02:19:04.625Z,79.60
2019-04-16T02:20:08.730Z,79.61
2019-04-16T02:21:12.392Z,79.34
2019-04-16T02:22:16.352Z,79.16
2019-04-16T02:23:19.979Z,79.10
2019-04-16T02:24:23.622Z,79.01
2019-04-16T02:25:27.269Z,78.96
2019-04-16T02:26:30.912Z,78.90
2019-04-16T02:27:34.608Z,78.84
2019-04-16T02:28:38.244Z,78.42
2019-04-16T02:29:41.871Z,78.60
2019-04-16T02:30:45.511Z,79.25
2019-04-16T02:31:51.599Z,79.48
2019-04-16T02:32:55.390Z,79.48
2019-04-16T02:33:59.099Z,79.86
2019-04-16T02:35:02.753Z,80.11
2019-04-16T02:36:06.636Z,79.71
2019-04-16T02:37:10.424Z,79.67
2019-04-16T02:38:14.481Z,79.74
2019-04-16T02:39:18.132Z,79.52
2019-04-16T02:40:21.754Z,79.28
2019-04-16T02:41:25.398Z,79.06
2019-04-16T02:42:31.886Z,78.95
2019-04-16T02:43:39.436Z,78.82
2019-04-16T02:44:39.822Z,78.53
2019-04-16T02:45:43.530Z,78.29
2019-04-16T02:46:47.175Z,77.66
2019-04-16T02:47:50.804Z,78.48
2019-04-16T02:48:54.904Z,78.78
2019-04-16T02:49:59.723Z,79.08
2019-04-16T02:51:11.331Z,79.01
2019-04-16T02:52:17.342Z,79.29
2019-04-16T02:53:35.380Z,79.13
2019-04-16T02:54:46.431Z,79.20
2019-04-16T02:56:17.393Z,79.22
2019-04-16T02:57:25.853Z,79.08
2019-04-16T02:58:33.953Z,79.14
2019-04-16T02:59:37.055Z,78.61
2019-04-16T03:00:42.626Z,79.19
2019-04-16T03:02:00.350Z,79.60
2019-04-16T03:03:14.723Z,80.33
2019-04-16T03:04:20.057Z,80.61
2019-04-16T03:05:26.512Z,81.81
2019-04-16T03:06:31.991Z,83.12
2019-04-16T03:07:36.177Z,82.66
2019-04-16T03:08:39.955Z,82.08
2019-04-16T03:09:43.948Z,81.76
2019-04-16T03:10:50.320Z,82.86
2019-04-16T03:11:53.981Z,81.90
2019-04-16T03:13:00.657Z,81.98
2019-04-16T03:14:04.398Z,82.87
2019-04-16T03:15:08.440Z,82.67
2019-04-16T03:16:19.460Z,81.96
2019-04-16T03:17:27.737Z,82.54
2019-04-16T03:18:33.014Z,83.48
2019-04-16T03:19:39.047Z,82.14
2019-04-16T03:20:42.803Z,81.75
2019-04-16T03:21:46.437Z,81.81
2019-04-16T03:22:50.140Z,81.63
2019-04-16T03:23:53.761Z,81.78
2019-04-16T03:24:57.403Z,81.94
2019-04-16T03:26:01.041Z,82.23
2019-04-16T03:27:05.558Z,82.16
2019-04-16T03:28:09.431Z,82.05
2019-04-16T03:29:13.297Z,82.24
2019-04-16T03:30:17.672Z,82.22
2019-04-16T03:31:23.459Z,82.20
2019-04-16T03:32:33.640Z,82.15
2019-04-16T03:33:32.192Z,81.92
2019-04-16T03:34:35.850Z,82.09
2019-04-16T03:35:39.629Z,82.44
2019-04-16T03:36:43.260Z,82.65
2019-04-16T03:37:47.007Z,82.90
2019-04-16T03:38:50.701Z,82.74
2019-04-16T03:39:54.315Z,82.86
2019-04-16T03:40:57.950Z,83.15
2019-04-16T03:42:01.575Z,83.15
2019-04-16T03:43:05.619Z,83.75
2019-04-16T03:44:09.841Z,83.60
2019-04-16T03:45:13.549Z,83.25
2019-04-16T03:46:17.189Z,83.07
2019-04-16T03:47:20.835Z,83.52
2019-04-16T03:48:24.541Z,83.69
2019-04-16T03:49:31.238Z,83.87
2019-04-16T03:50:34.906Z,83.93
2019-04-16T03:51:38.553Z,83.75
2019-04-16T03:52:45.486Z,83.86
2019-04-16T03:53:49.550Z,83.90
2019-04-16T03:54:54.074Z,83.89
2019-04-16T03:55:59.067Z,83.99
2019-04-16T03:57:02.911Z,83.91
2019-04-16T03:58:07.326Z,83.86
2019-04-16T03:59:12.343Z,83.76
2019-04-16T04:00:18.090Z,83.79
2019-04-16T04:01:21.774Z,83.82
2019-04-16T04:02:25.398Z,84.31
2019-04-16T04:03:29.036Z,84.49
2019-04-16T04:04:32.672Z,84.85
2019-04-16T04:05:36.549Z,84.95
2019-04-16T04:06:40.712Z,85.04
2019-04-16T04:07:48.288Z,84.95
2019-04-16T04:08:53.268Z,84.78
2019-04-16T04:09:58.730Z,84.68
2019-04-16T04:11:02.472Z,84.46
2019-04-16T04:12:06.129Z,84.25
2019-04-16T04:13:10.069Z,84.07
2019-04-16T04:14:13.702Z,84.02
2019-04-16T04:15:17.892Z,84.02
2019-04-16T04:16:21.616Z,83.99
2019-04-16T04:17:25.275Z,83.97
2019-04-16T04:18:29.289Z,84.33
2019-04-16T04:19:32.918Z,84.17
2019-04-16T04:20:39.949Z,84.17
2019-04-16T04:21:43.584Z,84.58
2019-04-16T04:22:47.192Z,84.68
2019-04-16T04:23:51.237Z,84.87
2019-04-16T04:24:54.891Z,84.93
2019-04-16T04:25:58.468Z,85.13
2019-04-16T04:27:02.465Z,85.00
2019-04-16T04:28:06.626Z,84.36
2019-04-16T04:29:10.452Z,84.09
2019-04-16T04:30:15.357Z,84.54
2019-04-16T04:31:21.975Z,84.58
2019-04-16T04:32:25.621Z,84.57
2019-04-16T04:33:40.855Z,84.66
2019-04-16T04:34:41.578Z,84.44
2019-04-16T04:35:45.257Z,83.99
2019-04-16T04:36:49.292Z,83.91
2019-04-16T04:37:53.051Z,83.88
2019-04-16T04:38:56.840Z,83.41
2019-04-16T04:40:00.473Z,83.62
2019-04-16T04:41:04.136Z,83.85
2019-04-16T04:42:07.794Z,83.96
2019-04-16T04:43:11.458Z,83.67
2019-04-16T04:44:15.103Z,83.81
2019-04-16T04:45:18.812Z,83.72
2019-04-16T04:46:22.508Z,83.68
2019-04-16T04:47:26.171Z,83.95
2019-04-16T04:48:29.807Z,84.32
2019-04-16T04:49:33.672Z,84.59
2019-04-16T04:50:37.363Z,84.70
2019-04-16T04:51:43.520Z,84.38
2019-04-16T04:52:46.837Z,84.64
2019-04-16T04:53:51.374Z,84.33
2019-04-16T04:54:55.178Z,84.30
2019-04-16T04:55:58.830Z,84.02
2019-04-16T04:57:02.423Z,83.63
2019-04-16T04:58:06.058Z,83.32
2019-04-16T04:59:09.690Z,83.04
2019-04-16T05:00:14.009Z,82.66
2019-04-16T05:01:17.783Z,82.54
2019-04-16T05:02:21.468Z,82.52
2019-04-16T05:03:38.703Z,82.59
2019-04-16T05:04:56.287Z,82.39
2019-04-16T05:06:01.587Z,81.90
2019-04-16T05:07:09.345Z,81.41
2019-04-16T05:08:13.345Z,80.96
2019-04-16T05:09:16.989Z,81.10
2019-04-16T05:10:20.633Z,81.33
2019-04-16T05:11:24.305Z,81.11
2019-04-16T05:12:27.945Z,80.69
2019-04-16T05:13:31.578Z,80.38
2019-04-16T05:14:36.799Z,80.17
2019-04-16T05:15:40.428Z,80.40
2019-04-16T05:16:44.097Z,80.89
2019-04-16T05:17:47.745Z,81.00
2019-04-16T05:18:51.346Z,81.51
2019-04-16T05:19:55.300Z,81.87
2019-04-16T05:20:58.878Z,81.89
2019-04-16T05:22:02.583Z,81.36
2019-04-16T05:23:06.244Z,81.68
2019-04-16T05:24:09.900Z,81.35
2019-04-16T05:25:13.644Z,81.52
2019-04-16T05:26:17.662Z,81.19
2019-04-16T05:27:21.344Z,81.42
2019-04-16T05:28:24.933Z,81.85
2019-04-16T05:29:29.086Z,81.92
2019-04-16T05:30:32.723Z,81.44
2019-04-16T05:31:36.398Z,82.03
2019-04-16T05:32:40.091Z,82.05
2019-04-16T05:33:43.797Z,81.75
2019-04-16T05:34:47.453Z,81.24
2019-04-16T05:35:51.413Z,81.13
2019-04-16T05:36:55.071Z,80.90
2019-04-16T05:37:58.678Z,80.96
2019-04-16T05:39:03.763Z,81.63
2019-04-16T05:40:07.783Z,81.65
2019-04-16T05:41:13.492Z,81.86
2019-04-16T05:42:16.762Z,82.06
2019-04-16T05:43:22.599Z,81.50
2019-04-16T05:44:25.785Z,81.69
2019-04-16T05:45:29.442Z,82.08
2019-04-16T05:46:33.032Z,82.37
2019-04-16T05:47:36.658Z,82.50
2019-04-16T05:48:40.426Z,81.99
2019-04-16T05:49:44.086Z,82.96
2019-04-16T05:50:47.827Z,82.72
2019-04-16T05:51:51.829Z,82.67
2019-04-16T05:52:55.666Z,82.66
2019-04-16T05:54:01.040Z,82.63
2019-04-16T05:55:20.391Z,82.75
2019-04-16T05:56:31.721Z,82.81
2019-04-16T05:57:36.995Z,82.04
2019-04-16T05:58:40.635Z,81.09
2019-04-16T05:59:44.330Z,81.05
2019-04-16T06:00:49.605Z,81.42
2019-04-16T06:01:57.319Z,81.16
2019-04-16T06:03:00.275Z,80.96
2019-04-16T06:04:03.921Z,80.75
2019-04-16T06:05:08.008Z,80.97
2019-04-16T06:06:11.636Z,81.24
2019-04-16T06:07:15.295Z,81.45
2019-04-16T06:08:19.179Z,81.30
2019-04-16T06:09:22.776Z,80.96
2019-04-16T06:10:26.465Z,80.60
2019-04-16T06:11:35.679Z,80.23
2019-04-16T06:12:39.651Z,79.56
2019-04-16T06:13:45.150Z,79.45
2019-04-16T06:14:54.036Z,79.39
2019-04-16T06:15:59.478Z,78.86
2019-04-16T06:17:21.138Z,78.56
2019-04-16T06:18:41.426Z,78.19
2019-04-16T06:20:02.817Z,77.51
2019-04-16T06:21:25.790Z,77.46
2019-04-16T06:22:30.220Z,77.58
2019-04-16T06:23:44.520Z,78.01
2019-04-16T06:24:49.812Z,78.69
2019-04-16T06:25:55.022Z,78.92
2019-04-16T06:27:03.252Z,79.16
2019-04-16T06:28:08.597Z,79.13
2019-04-16T06:29:13.870Z,78.22
2019-04-16T06:30:34.177Z,77.42
2019-04-16T06:31:55.876Z,77.20
2019-04-16T06:33:01.086Z,77.15
2019-04-16T06:34:06.493Z,76.85
2019-04-16T06:35:23.364Z,76.95
2019-04-16T06:36:31.255Z,76.49
2019-04-16T06:37:54.735Z,76.37
2019-04-16T06:39:08.899Z,76.39
2019-04-16T06:40:14.315Z,75.97
2019-04-16T06:41:41.168Z,77.09
2019-04-16T06:42:38.915Z,79.86
2019-04-16T06:43:44.138Z,75.48
2019-04-16T06:44:55.387Z,73.41
2019-04-16T06:46:16.004Z,73.41
2019-04-16T06:47:41.851Z,73.33
2019-04-16T06:48:50.380Z,72.70
2019-04-16T06:49:55.854Z,71.81
2019-04-16T06:51:01.449Z,70.97
2019-04-16T06:52:22.735Z,70.94
2019-04-16T06:53:30.248Z,70.94
2019-04-16T06:54:41.004Z,71.51
2019-04-16T06:55:51.858Z,71.51
2019-04-16T06:57:15.467Z,71.37
2019-04-16T06:58:20.742Z,70.34
2019-04-16T06:59:35.628Z,69.18
2019-04-16T07:00:40.919Z,69.18
2019-04-16T07:02:04.140Z,67.52
2019-04-16T07:03:18.918Z,67.04
2019-04-16T07:04:24.212Z,67.04
2019-04-16T07:05:33.003Z,66.87
2019-04-16T07:06:45.768Z,66.11
2019-04-16T07:08:07.634Z,65.22
2019-04-16T07:09:16.185Z,65.08
2019-04-16T07:10:21.503Z,64.28
2019-04-16T07:11:27.065Z,64.19
2019-04-16T07:12:30.741Z,63.84
2019-04-16T07:13:34.392Z,63.28
2019-04-16T07:14:38.055Z,63.62
2019-04-16T07:15:42.200Z,62.92
2019-04-16T07:16:46.078Z,62.84
2019-04-16T07:17:49.716Z,61.46
2019-04-16T07:18:53.284Z,60.50
2019-04-16T07:19:56.914Z,60.44
2019-04-16T07:21:00.586Z,60.97
2019-04-16T07:22:04.593Z,61.33
2019-04-16T07:23:08.238Z,61.12
2019-04-16T07:24:11.948Z,59.92
2019-04-16T07:25:16.255Z,59.76
2019-04-16T07:26:20.339Z,59.87
2019-04-16T07:27:23.978Z,59.63
2019-04-16T07:28:35.163Z,58.36
2019-04-16T07:29:40.596Z,58.82
2019-04-16T07:30:48.669Z,58.62
2019-04-16T07:31:57.094Z,58.43
2019-04-16T07:33:11.087Z,56.03
2019-04-16T07:34:31.329Z,56.03
2019-04-16T07:35:36.792Z,55.73
2019-04-16T07:37:00.460Z,55.35
2019-04-16T07:38:21.885Z,54.59
2019-04-16T07:39:29.173Z,54.53
2019-04-16T07:40:39.787Z,53.76
2019-04-16T07:43:16.126Z,54.16
2019-04-16T07:43:47.126Z,54.41
2019-04-16T07:44:27.291Z,53.27
2019-04-16T07:45:50.975Z,51.25
2019-04-16T07:46:56.318Z,50.44
2019-04-16T07:48:13.572Z,50.82
2019-04-16T07:49:27.740Z,50.65
2019-04-16T07:50:49.231Z,48.79
2019-04-16T07:52:12.874Z,49.92
2019-04-16T07:53:33.390Z,49.88
2019-04-16T07:54:54.567Z,49.02
2019-04-16T07:56:02.533Z,49.34
2019-04-16T07:57:06.183Z,48.85
2019-04-16T07:58:09.843Z,48.60
2019-04-16T07:59:13.488Z,48.50
2019-04-16T08:00:17.307Z,48.54
2019-04-16T08:01:20.981Z,48.77
2019-04-16T08:02:24.605Z,47.40
2019-04-16T08:03:28.666Z,47.78
2019-04-16T08:04:35.400Z,48.77
2019-04-16T08:05:40.938Z,49.36
2019-04-16T08:06:46.267Z,49.11
2019-04-16T08:07:49.750Z,48.27
2019-04-16T08:08:56.805Z,48.25
2019-04-16T08:10:02.138Z,47.82
2019-04-16T08:11:04.584Z,46.68
2019-04-16T08:12:22.049Z,45.00
2019-04-16T08:13:15.628Z,44.84
2019-04-16T08:14:19.383Z,43.71
2019-04-16T08:15:23.110Z,42.83
2019-04-16T08:16:26.747Z,43.08
2019-04-16T08:17:31.219Z,42.65
2019-04-16T08:18:36.496Z,42.87
2019-04-16T08:19:40.202Z,42.98
2019-04-16T08:20:43.849Z,42.64
2019-04-16T08:21:47.817Z,42.86
2019-04-16T08:22:53.133Z,42.89
2019-04-16T08:23:58.415Z,43.46
2019-04-16T08:25:05.779Z,44.25
2019-04-16T08:26:12.980Z,44.06
2019-04-16T08:27:19.103Z,44.58
2019-04-16T08:28:20.257Z,44.67
2019-04-16T08:29:26.558Z,44.40
2019-04-16T08:30:34.595Z,44.24
2019-04-16T08:31:36.724Z,44.61
2019-04-16T08:32:40.419Z,43.56
2019-04-16T08:33:44.062Z,42.51
2019-04-16T08:34:47.700Z,41.46
2019-04-16T08:35:51.285Z,40.58
2019-04-16T08:36:54.984Z,40.83
2019-04-16T08:37:58.962Z,40.48
2019-04-16T08:39:06.655Z,39.80
2019-04-16T08:40:12.239Z,39.79
2019-04-16T08:41:20.077Z,40.02
2019-04-16T08:42:24.217Z,40.17
2019-04-16T08:43:26.736Z,39.84
2019-04-16T08:44:35.231Z,40.06
2019-04-16T08:45:39.179Z,40.15
2019-04-16T08:46:41.338Z,40.30
2019-04-16T08:47:46.081Z,40.63
2019-04-16T08:48:52.490Z,40.71
2019-04-16T08:49:55.194Z,40.78
2019-04-16T08:50:59.216Z,41.45
2019-04-16T08:52:02.985Z,42.51
2019-04-16T08:53:06.607Z,41.85
2019-04-16T08:54:10.326Z,42.29
2019-04-16T08:55:14.380Z,41.41
2019-04-16T08:56:17.927Z,41.05
2019-04-16T08:57:21.511Z,40.28
2019-04-16T08:58:25.192Z,39.72
2019-04-16T08:59:28.885Z,40.45
2019-04-16T09:00:32.991Z,39.09
2019-04-16T09:01:36.647Z,38.99
2019-04-16T09:02:40.303Z,38.41
2019-04-16T09:03:44.039Z,37.37
2019-04-16T09:04:47.665Z,36.48
2019-04-16T09:05:51.349Z,36.29
2019-04-16T09:06:54.998Z,34.49
2019-04-16T09:08:11.442Z,34.31
2019-04-16T09:09:25.427Z,35.23
2019-04-16T09:10:30.944Z,34.73
2019-04-16T09:11:36.405Z,34.58
2019-04-16T09:12:43.508Z,35.90
2019-04-16T09:13:49.799Z,35.85
2019-04-16T09:14:56.034Z,36.90
2019-04-16T09:15:58.802Z,37.58
2019-04-16T09:17:04.054Z,38.89
2019-04-16T09:18:12.331Z,39.57
2019-04-16T09:19:17.595Z,39.05
2019-04-16T09:20:23.422Z,38.93
2019-04-16T09:21:28.164Z,38.37
2019-04-16T09:22:32.386Z,39.43
2019-04-16T09:23:36.020Z,39.29
2019-04-16T09:24:50.307Z,38.57
2019-04-16T09:26:12.465Z,38.03
2019-04-16T09:27:05.700Z,37.80
2019-04-16T09:28:24.425Z,36.41
2019-04-16T09:29:17.880Z,36.11
2019-04-16T09:30:39.291Z,33.76
2019-04-16T09:31:59.638Z,33.16
2019-04-16T09:33:04.937Z,32.34
2019-04-16T09:34:16.210Z,33.08
2019-04-16T09:35:24.035Z,32.71
2019-04-16T09:36:38.542Z,32.83
2019-04-16T09:37:49.838Z,33.50
2019-04-16T09:39:03.977Z,33.87
2019-04-16T09:40:21.623Z,33.84
2019-04-16T09:41:29.788Z,34.14
2019-04-16T09:42:34.227Z,34.57
2019-04-16T09:43:42.351Z,35.04
2019-04-16T09:44:45.980Z,34.92
2019-04-16T09:45:49.641Z,35.69
2019-04-16T09:46:53.290Z,33.61
2019-04-16T09:47:56.940Z,32.95
2019-04-16T09:49:00.566Z,32.92
2019-04-16T09:50:09.672Z,32.36
2019-04-16T09:51:10.725Z,33.04
2019-04-16T09:52:14.380Z,32.47
2019-04-16T09:53:18.031Z,32.64
2019-04-16T09:54:21.665Z,33.06
2019-04-16T09:55:25.321Z,32.07
2019-04-16T09:56:30.197Z,31.38
2019-04-16T09:57:34.105Z,29.32
2019-04-16T09:58:42.351Z,29.32
2019-04-16T09:59:47.706Z,29.29
2019-04-16T10:00:52.190Z,29.46
2019-04-16T10:01:57.516Z,29.32
2019-04-16T10:03:02.797Z,28.91
2019-04-16T10:04:08.095Z,28.79
2019-04-16T10:05:11.834Z,28.81
2019-04-16T10:06:15.466Z,29.04
2019-04-16T10:07:19.379Z,28.52
2019-04-16T10:08:22.963Z,27.34
2019-04-16T10:09:26.731Z,27.74
2019-04-16T10:10:30.326Z,27.85
2019-04-16T10:11:35.745Z,27.07
2019-04-16T10:12:39.382Z,28.01
2019-04-16T10:13:43.193Z,27.72
2019-04-16T10:14:46.887Z,28.74
2019-04-16T10:15:50.511Z,27.65
2019-04-16T10:16:54.165Z,27.32
2019-04-16T10:17:58.612Z,26.86
2019-04-16T10:19:07.875Z,26.98
2019-04-16T10:20:08.541Z,27.60
2019-04-16T10:21:12.209Z,26.59
2019-04-16T10:22:16.253Z,25.89
2019-04-16T10:23:21.574Z,24.83
2019-04-16T10:24:43.242Z,24.57
2019-04-16T10:25:47.020Z,24.82
2019-04-16T10:26:52.273Z,24.64
2019-04-16T10:27:57.528Z,25.05
2019-04-16T10:29:05.896Z,24.79
2019-04-16T10:30:10.799Z,24.95
2019-04-16T10:31:16.058Z,24.58
2019-04-16T10:32:19.723Z,24.30
2019-04-16T10:33:23.421Z,23.41
2019-04-16T10:34:27.104Z,23.92
2019-04-16T10:35:30.758Z,23.04
2019-04-16T10:36:37.142Z,23.58
2019-04-16T10:37:39.730Z,22.18
2019-04-16T10:38:51.865Z,23.61
2019-04-16T10:39:57.124Z,22.56
2019-04-16T10:41:08.414Z,21.79
2019-04-16T10:42:30.297Z,21.48
2019-04-16T10:43:51.678Z,21.28
2019-04-16T10:45:05.942Z,21.04
2019-04-16T10:46:11.281Z,21.97
2019-04-16T10:47:22.586Z,21.62
2019-04-16T10:48:44.317Z,22.04
2019-04-16T10:49:55.172Z,20.08
2019-04-16T10:51:06.570Z,20.09
2019-04-16T10:52:26.888Z,20.90
2019-04-16T10:53:48.302Z,20.94
2019-04-16T10:55:09.305Z,20.08
2019-04-16T10:56:20.742Z,20.43
2019-04-16T10:57:22.772Z,19.85
2019-04-16T10:58:33.700Z,19.80
2019-04-16T10:59:38.987Z,20.64
2019-04-16T11:00:48.431Z,20.65
2019-04-16T11:01:53.762Z,19.70
2019-04-16T11:03:05.302Z,20.35
2019-04-16T11:04:10.960Z,20.10
2019-04-16T11:05:19.241Z,19.99
2019-04-16T11:06:23.400Z,20.37
2019-04-16T11:07:34.901Z,20.02
2019-04-16T11:08:38.697Z,19.72
2019-04-16T11:09:42.503Z,19.77
2019-04-16T11:10:46.245Z,21.09
2019-04-16T11:11:50.208Z,20.89
2019-04-16T11:12:53.931Z,21.75
2019-04-16T11:14:00.164Z,21.61
2019-04-16T11:15:03.369Z,22.41
2019-04-16T11:16:14.602Z,23.15
2019-04-16T11:17:19.900Z,23.05
2019-04-16T11:18:23.542Z,23.78
2019-04-16T11:19:27.266Z,24.73
2019-04-16T11:20:30.963Z,24.27
2019-04-16T11:21:34.617Z,24.82
2019-04-16T11:22:38.265Z,25.76
2019-04-16T11:23:41.941Z,26.45
2019-04-16T11:24:45.605Z,26.68
2019-04-16T11:25:49.226Z,28.01
2019-04-16T11:26:52.931Z,28.86
2019-04-16T11:27:56.602Z,29.50
2019-04-16T11:29:00.262Z,30.63
2019-04-16T11:30:07.136Z,31.12
2019-04-16T11:31:12.361Z,32.38
2019-04-16T11:32:17.670Z,33.69
2019-04-16T11:33:21.311Z,33.59
2019-04-16T11:34:24.966Z,35.51
2019-04-16T11:35:29.113Z,35.88
2019-04-16T11:36:32.711Z,36.36
2019-04-16T11:37:36.614Z,38.04
2019-04-16T11:38:41.625Z,37.92
2019-04-16T11:39:45.300Z,38.38
2019-04-16T11:40:48.954Z,38.81
2019-04-16T11:41:52.596Z,40.05
2019-04-16T11:42:56.277Z,40.60
2019-04-16T11:44:14.253Z,41.25
2019-04-16T11:45:06.905Z,40.63
2019-04-16T11:46:10.724Z,41.14
2019-04-16T11:47:14.381Z,42.79
2019-04-16T11:48:17.956Z,42.02
2019-04-16T11:49:21.585Z,42.82
2019-04-16T11:50:25.620Z,42.80
2019-04-16T11:51:29.305Z,42.21
2019-04-16T11:52:32.975Z,42.76
2019-04-16T11:53:36.622Z,41.80
2019-04-16T11:54:46.834Z,42.86
2019-04-16T11:55:47.966Z,42.83
2019-04-16T11:56:51.593Z,42.98
2019-04-16T11:57:57.895Z,44.05
2019-04-16T11:59:01.195Z,44.44
2019-04-16T12:00:09.412Z,44.96
2019-04-16T12:01:15.367Z,44.20
2019-04-16T12:02:20.642Z,45.36
2019-04-16T12:03:25.899Z,44.17
2019-04-16T12:04:32.793Z,44.78
2019-04-16T12:05:46.968Z,43.96
2019-04-16T12:06:58.106Z,42.54
2019-04-16T12:08:18.497Z,42.64
2019-04-16T12:09:39.755Z,42.20
2019-04-16T12:11:04.176Z,42.62
2019-04-16T12:12:12.251Z,41.55
2019-04-16T12:13:21.142Z,42.36
2019-04-16T12:14:35.495Z,40.65
2019-04-16T12:15:57.127Z,39.33
2019-04-16T12:17:15.090Z,37.94
2019-04-16T12:18:20.430Z,36.13
2019-04-16T12:19:25.779Z,36.04
2019-04-16T12:20:46.173Z,35.41
2019-04-16T12:22:00.596Z,34.27
2019-04-16T12:23:22.015Z,35.55
2019-04-16T12:24:36.477Z,36.45
2019-04-16T12:25:44.487Z,36.39
2019-04-16T12:26:49.730Z,36.15
2019-04-16T12:28:12.593Z,36.37
2019-04-16T12:29:41.821Z,36.42
2019-04-16T12:31:05.891Z,37.22
2019-04-16T12:32:11.471Z,36.42
2019-04-16T12:33:22.916Z,36.44
2019-04-16T12:34:44.683Z,37.41
2019-04-16T12:35:56.019Z,38.08
2019-04-16T12:37:16.522Z,38.02
2019-04-16T12:38:38.228Z,38.85
2019-04-16T12:39:43.570Z,37.97
2019-04-16T12:40:52.096Z,37.39
2019-04-16T12:42:00.006Z,37.48
2019-04-16T12:43:07.922Z,36.90
2019-04-16T12:44:44.633Z,37.14
2019-04-16T12:45:54.544Z,36.57
2019-04-16T12:47:18.173Z,37.50
2019-04-16T12:48:23.520Z,36.71
2019-04-16T12:49:44.715Z,35.92
2019-04-16T12:51:08.480Z,36.20
2019-04-16T12:52:17.572Z,37.24
2019-04-16T12:53:25.676Z,36.22
2019-04-16T12:54:37.913Z,36.27
2019-04-16T12:56:05.400Z,35.46
2019-04-16T12:57:14.938Z,34.51
2019-04-16T12:58:20.005Z,35.29
2019-04-16T12:59:31.080Z,34.64
2019-04-16T13:00:42.536Z,35.66
2019-04-16T13:01:54.013Z,34.57
2019-04-16T13:02:59.271Z,34.22
2019-04-16T13:04:10.751Z,34.87
2019-04-16T13:05:20.967Z,31.86
2019-04-16T13:06:32.415Z,31.17
2019-04-16T13:07:55.908Z,28.40
2019-04-16T13:09:19.351Z,27.68
2019-04-16T13:10:25.906Z,28.93
2019-04-16T13:11:32.001Z,29.10
2019-04-16T13:12:38.180Z,29.69
2019-04-16T13:13:59.697Z,30.20
2019-04-16T13:15:07.847Z,30.16
2019-04-16T13:16:29.421Z,29.98
2019-04-16T13:17:34.714Z,30.42
2019-04-16T13:18:43.145Z,30.28
2019-04-16T13:19:51.139Z,30.98
2019-04-16T13:21:03.932Z,31.85
2019-04-16T13:22:06.119Z,31.46
2019-04-16T13:23:20.154Z,29.71
2019-04-16T13:24:28.614Z,28.12
2019-04-16T13:25:36.494Z,28.81
2019-04-16T13:26:41.788Z,28.03
2019-04-16T13:27:50.879Z,27.83
2019-04-16T13:28:56.252Z,27.47
2019-04-16T13:30:01.998Z,27.01
2019-04-16T13:31:06.406Z,26.88
2019-04-16T13:32:10.663Z,27.61
2019-04-16T13:33:14.316Z,28.01
2019-04-16T13:34:18.590Z,27.65
2019-04-16T13:35:23.157Z,26.72
2019-04-16T13:36:27.967Z,27.20
2019-04-16T13:37:36.848Z,27.71
2019-04-16T13:38:40.366Z,27.26
2019-04-16T13:40:00.843Z,27.16
2019-04-16T13:41:04.604Z,27.82
2019-04-16T13:42:08.305Z,28.08
2019-04-16T13:43:13.595Z,27.10
2019-04-16T13:44:21.656Z,28.03
2019-04-16T13:45:32.778Z,27.76
2019-04-16T13:46:36.465Z,26.28
2019-04-16T13:47:46.742Z,26.48
2019-04-16T13:48:52.019Z,26.79
2019-04-16T13:50:04.881Z,26.51
2019-04-16T13:51:14.928Z,25.76
2019-04-16T13:52:17.070Z,24.83
2019-04-16T13:53:41.182Z,25.33
2019-04-16T13:54:52.544Z,26.57
2019-04-16T13:55:58.214Z,26.71
2019-04-16T13:57:06.330Z,26.66
2019-04-16T13:58:11.668Z,28.04
2019-04-16T13:59:16.959Z,28.81
2019-04-16T14:00:33.653Z,29.80
2019-04-16T14:01:54.762Z,31.67
2019-04-16T14:03:00.318Z,32.25
2019-04-16T14:04:04.030Z,31.39
2019-04-16T14:05:10.328Z,30.88
2019-04-16T14:06:13.469Z,31.09
2019-04-16T14:07:17.132Z,32.36
2019-04-16T14:08:20.786Z,32.46
2019-04-16T14:09:24.462Z,33.78
2019-04-16T14:10:28.120Z,34.99
2019-04-16T14:11:31.835Z,35.20
2019-04-16T14:12:42.139Z,35.92
2019-04-16T14:13:42.061Z,36.56
2019-04-16T14:14:46.703Z,35.89
2019-04-16T14:15:51.773Z,36.18
2019-04-16T14:16:55.429Z,37.34
2019-04-16T14:18:00.661Z,36.16
2019-04-16T14:19:06.723Z,36.48
2019-04-16T14:20:12.815Z,38.47
2019-04-16T14:21:16.579Z,40.69